createdAt,value
2023-02-17T00:01:39.540Z,37.43
2023-02-17T00:04:09.514Z,28.07
2023-02-17T00:06:38.085Z,39.47
2023-02-17T00:09:07.676Z,26.97
2023-02-17T00:11:36.225Z,35.63
2023-02-17T00:14:04.960Z,31.87
2023-02-17T00:16:33.681Z,34.70
2023-02-17T00:19:24.833Z,27.73
2023-02-17T00:21:57.111Z,28.40
2023-02-17T00:24:27.351Z,29.10
2023-02-17T00:26:56.298Z,32.90
2023-02-17T00:29:24.990Z,33.50
2023-02-17T00:31:55.035Z,32.47
2023-02-17T00:34:23.793Z,28.27
2023-02-17T00:36:52.470Z,27.37
2023-02-17T00:39:22.530Z,27.87
2023-02-17T00:41:51.145Z,31.13
2023-02-17T00:44:24.067Z,30.70
2023-02-17T00:46:53.012Z,27.90
2023-02-17T00:49:23.744Z,30.07
2023-02-17T00:51:52.992Z,30.07
2023-02-17T00:54:22.933Z,39.07
2023-02-17T00:56:51.643Z,27.40
2023-02-17T00:59:20.285Z,33.10
2023-02-17T01:01:49.083Z,28.03
2023-02-17T01:04:17.888Z,29.80
2023-02-17T01:06:46.510Z,32.17
2023-02-17T01:09:15.978Z,30.10
2023-02-17T01:11:45.965Z,34.33
2023-02-17T01:14:15.549Z,35.20
2023-02-17T01:16:47.964Z,28.37
2023-02-17T01:19:20.286Z,27.33
2023-02-17T01:21:49.132Z,28.67
2023-02-17T01:24:17.724Z,29.17
2023-02-17T01:26:47.809Z,34.67
2023-02-17T01:29:16.471Z,31.20
2023-02-17T01:31:45.175Z,29.13
2023-02-17T01:34:14.005Z,30.77
2023-02-17T01:36:42.524Z,39.63
2023-02-17T01:39:14.076Z,33.63
2023-02-17T01:41:43.339Z,35.30
2023-02-17T01:44:17.542Z,32.73
2023-02-17T01:46:47.854Z,31.90
2023-02-17T01:49:31.901Z,34.27
2023-02-17T01:52:06.521Z,30.30
2023-02-17T01:54:41.187Z,43.33
2023-02-17T01:57:09.905Z,35.27
2023-02-17T01:59:41.403Z,38.47
2023-02-17T02:02:10.334Z,31.73
2023-02-17T02:04:41.802Z,38.87
2023-02-17T02:07:16.703Z,30.00
2023-02-17T02:09:51.818Z,40.87
2023-02-17T02:12:21.932Z,30.70
2023-02-17T02:14:53.228Z,31.13
2023-02-17T02:17:34.245Z,26.77
2023-02-17T02:20:42.410Z,31.87
2023-02-17T02:23:49.922Z,32.57
2023-02-17T02:26:49.525Z,28.10
2023-02-17T02:29:53.397Z,31.17
2023-02-17T02:32:42.432Z,33.93
2023-02-17T02:35:16.506Z,35.47
2023-02-17T02:37:49.359Z,36.60
2023-02-17T02:40:21.180Z,31.67
2023-02-17T02:42:50.959Z,37.07
2023-02-17T02:45:20.499Z,29.20
2023-02-17T02:47:54.093Z,39.37
2023-02-17T02:50:29.856Z,33.40
2023-02-17T02:53:09.122Z,31.27
2023-02-17T02:55:53.761Z,43.57
2023-02-17T02:58:25.149Z,33.93
2023-02-17T03:01:00.402Z,34.37
2023-02-17T03:03:37.210Z,32.43
2023-02-17T03:06:10.437Z,33.47
2023-02-17T03:08:43.930Z,40.00
2023-02-17T03:11:14.018Z,37.80
2023-02-17T03:13:42.673Z,44.53
2023-02-17T03:16:13.019Z,28.40
2023-02-17T03:18:45.119Z,27.30
2023-02-17T03:21:17.151Z,23.67
2023-02-17T03:23:45.836Z,23.10
2023-02-17T03:26:14.549Z,27.67
2023-02-17T03:28:43.137Z,32.07
2023-02-17T03:31:11.831Z,24.00
2023-02-17T03:33:40.515Z,35.20
2023-02-17T03:36:10.743Z,29.47
2023-02-17T03:38:39.374Z,33.63
2023-02-17T03:41:08.002Z,27.33
2023-02-17T03:43:36.662Z,32.30
2023-02-17T03:46:05.848Z,34.33
2023-02-17T03:48:34.705Z,43.27
2023-02-17T03:51:13.404Z,30.37
2023-02-17T03:53:42.887Z,28.57
2023-02-17T03:56:11.737Z,32.80
2023-02-17T03:58:40.772Z,35.63
2023-02-17T04:01:11.383Z,36.93
2023-02-17T04:03:40.793Z,36.43
2023-02-17T04:06:11.641Z,34.33
2023-02-17T04:08:41.220Z,35.80
2023-02-17T04:11:11.336Z,31.73
2023-02-17T04:13:40.126Z,38.10
2023-02-17T04:16:10.063Z,29.50
2023-02-17T04:18:39.476Z,40.77
2023-02-17T04:21:08.691Z,32.10
2023-02-17T04:23:39.095Z,36.53
2023-02-17T04:26:09.196Z,31.83
2023-02-17T04:28:39.605Z,40.60
2023-02-17T04:31:09.064Z,28.17
2023-02-17T04:33:40.107Z,38.53
2023-02-17T04:36:09.245Z,33.53
2023-02-17T04:38:39.714Z,42.23
2023-02-17T04:41:08.350Z,31.43
2023-02-17T04:43:36.977Z,38.97
2023-02-17T04:46:06.262Z,33.37
2023-02-17T04:48:35.094Z,37.53
2023-02-17T04:51:03.694Z,29.67
2023-02-17T04:53:32.347Z,36.07
2023-02-17T04:56:02.394Z,36.20
2023-02-17T04:58:30.974Z,42.23
2023-02-17T05:01:00.889Z,35.63
2023-02-17T05:03:29.555Z,28.83
2023-02-17T05:05:58.160Z,29.63
2023-02-17T05:08:26.909Z,35.13
2023-02-17T05:10:55.816Z,27.77
2023-02-17T05:13:27.545Z,34.77
2023-02-17T05:15:56.177Z,28.50
2023-02-17T05:18:24.783Z,30.77
2023-02-17T05:20:53.511Z,28.93
2023-02-17T05:23:22.113Z,26.87
2023-02-17T05:25:50.820Z,30.83
2023-02-17T05:28:19.866Z,31.57
2023-02-17T05:30:51.636Z,28.33
2023-02-17T05:33:20.448Z,29.13
2023-02-17T05:35:49.168Z,37.97
2023-02-17T05:38:17.808Z,30.67
2023-02-17T05:40:46.390Z,39.70
2023-02-17T05:43:14.921Z,30.13
2023-02-17T05:45:43.576Z,40.23
2023-02-17T05:48:13.558Z,30.43
2023-02-17T05:50:42.257Z,36.20
2023-02-17T05:53:10.936Z,27.97
2023-02-17T05:55:39.700Z,35.73
2023-02-17T05:58:08.265Z,27.47
2023-02-17T06:00:37.006Z,38.80
2023-02-17T06:03:15.328Z,34.23
2023-02-17T06:05:45.787Z,33.80
2023-02-17T06:08:14.533Z,29.07
2023-02-17T06:10:43.421Z,35.03
2023-02-17T06:13:12.070Z,33.57
2023-02-17T06:15:40.673Z,32.33
2023-02-17T06:18:09.354Z,38.97
2023-02-17T06:20:39.452Z,39.83
2023-02-17T06:23:08.070Z,32.93
2023-02-17T06:25:36.808Z,37.77
2023-02-17T06:28:05.696Z,35.67
2023-02-17T06:30:34.344Z,36.37
2023-02-17T06:33:03.117Z,35.70
2023-02-17T06:35:31.798Z,36.97
2023-02-17T06:38:01.896Z,38.73
2023-02-17T06:40:30.599Z,37.20
2023-02-17T06:42:59.225Z,31.87
2023-02-17T06:45:27.830Z,33.57
2023-02-17T06:47:56.479Z,34.00
2023-02-17T06:50:25.107Z,35.10
2023-02-17T06:52:54.586Z,30.57
2023-02-17T06:55:24.620Z,32.63
2023-02-17T06:57:53.197Z,32.17
2023-02-17T07:00:23.144Z,34.80
2023-02-17T07:02:51.846Z,41.60
2023-02-17T07:05:20.558Z,41.80
2023-02-17T07:07:49.130Z,41.40
2023-02-17T07:10:17.851Z,30.00
2023-02-17T07:12:47.928Z,31.10
2023-02-17T07:15:16.681Z,24.03
2023-02-17T07:17:45.380Z,28.33
2023-02-17T07:20:14.553Z,25.60
2023-02-17T07:22:43.304Z,33.30
2023-02-17T07:25:12.083Z,25.70
2023-02-17T07:27:40.694Z,37.03
2023-02-17T07:30:11.697Z,37.90
2023-02-17T07:32:40.334Z,32.20
2023-02-17T07:35:09.294Z,31.10
2023-02-17T07:37:37.911Z,44.53
2023-02-17T07:40:08.092Z,30.70
2023-02-17T07:42:36.696Z,32.83
2023-02-17T07:45:06.088Z,25.87
2023-02-17T07:47:36.125Z,24.83
2023-02-17T07:50:04.800Z,29.60
2023-02-17T07:52:33.528Z,29.77
2023-02-17T07:55:02.157Z,30.20
2023-02-17T07:57:31.735Z,28.57
2023-02-17T08:00:00.377Z,26.63
2023-02-17T08:02:29.086Z,35.83
2023-02-17T08:04:58.992Z,25.73
2023-02-17T08:07:28.193Z,33.77
2023-02-17T08:10:14.488Z,27.93
2023-02-17T08:13:00.660Z,32.53
2023-02-17T08:15:33.155Z,33.97
2023-02-17T08:18:01.944Z,23.67
2023-02-17T08:20:34.180Z,33.50
2023-02-17T08:23:04.946Z,23.87
2023-02-17T08:25:34.853Z,25.47
2023-02-17T08:28:05.824Z,21.73
2023-02-17T08:30:38.470Z,30.13
2023-02-17T08:33:07.732Z,28.50
2023-02-17T08:35:38.199Z,33.47
2023-02-17T08:38:07.000Z,23.43
2023-02-17T08:40:35.642Z,29.37
2023-02-17T08:43:04.458Z,25.80
2023-02-17T08:45:33.094Z,28.27
2023-02-17T08:48:01.766Z,24.43
2023-02-17T08:50:30.978Z,26.27
2023-02-17T08:53:01.262Z,22.30
2023-02-17T08:55:38.090Z,23.37
2023-02-17T08:58:12.706Z,23.23
2023-02-17T09:00:41.714Z,27.63
2023-02-17T09:03:10.534Z,19.60
2023-02-17T09:05:39.557Z,22.43
2023-02-17T09:08:11.179Z,27.37
2023-02-17T09:10:40.558Z,22.43
2023-02-17T09:13:09.477Z,19.80
2023-02-17T09:15:40.654Z,25.30
2023-02-17T09:18:09.470Z,22.10
2023-02-17T09:20:39.652Z,24.13
2023-02-17T09:23:09.981Z,24.67
2023-02-17T09:25:38.895Z,27.20
2023-02-17T09:28:08.467Z,26.20
2023-02-17T09:30:38.177Z,27.20
2023-02-17T09:33:06.848Z,21.80
2023-02-17T09:35:35.551Z,27.03
2023-02-17T09:38:04.243Z,19.83
2023-02-17T09:40:43.917Z,22.00
2023-02-17T09:43:15.573Z,18.17
2023-02-17T09:45:48.008Z,22.93
2023-02-17T09:48:20.423Z,16.90
2023-02-17T09:50:55.491Z,18.30
2023-02-17T09:53:29.618Z,17.07
2023-02-17T09:56:02.836Z,22.40
2023-02-17T09:58:37.533Z,29.07
2023-02-17T10:01:12.300Z,20.07
2023-02-17T10:03:44.361Z,22.93
2023-02-17T10:06:19.823Z,16.67
2023-02-17T10:08:52.456Z,16.60
2023-02-17T10:11:29.386Z,15.93
2023-02-17T10:14:12.731Z,16.70
2023-02-17T10:16:48.842Z,16.97
2023-02-17T10:19:22.365Z,14.33
2023-02-17T10:21:58.453Z,17.37
2023-02-17T10:24:27.155Z,20.57
2023-02-17T10:27:12.011Z,17.43
2023-02-17T10:29:51.894Z,19.97
2023-02-17T10:32:24.140Z,16.73
2023-02-17T10:35:04.685Z,17.87
2023-02-17T10:37:45.816Z,19.87
2023-02-17T10:40:19.201Z,18.90
2023-02-17T10:42:52.164Z,23.70
2023-02-17T10:45:30.185Z,18.03
2023-02-17T10:48:03.603Z,17.63
2023-02-17T10:50:32.642Z,15.87
2023-02-17T10:53:01.285Z,22.17
2023-02-17T10:55:38.805Z,15.50
2023-02-17T10:58:18.925Z,17.37
2023-02-17T11:00:51.111Z,25.23
2023-02-17T11:03:24.134Z,23.57
2023-02-17T11:05:57.964Z,20.83
2023-02-17T11:08:38.758Z,18.37
2023-02-17T11:11:17.014Z,17.73
2023-02-17T11:14:02.062Z,21.10
2023-02-17T11:16:37.210Z,24.70
2023-02-17T11:19:07.057Z,20.30
2023-02-17T11:21:36.327Z,20.93
2023-02-17T11:24:07.176Z,23.30
2023-02-17T11:26:40.262Z,16.20
2023-02-17T11:29:11.918Z,15.33
2023-02-17T11:31:40.649Z,21.93
2023-02-17T11:34:14.281Z,21.57
2023-02-17T11:36:46.452Z,24.13
2023-02-17T11:39:24.096Z,20.23
2023-02-17T11:41:52.723Z,21.93
2023-02-17T11:44:26.648Z,22.10
2023-02-17T11:47:10.142Z,24.57
2023-02-17T11:49:59.463Z,17.30
2023-02-17T11:52:39.765Z,18.47
2023-02-17T11:55:20.486Z,19.77
2023-02-17T11:58:04.066Z,26.27
2023-02-17T12:00:44.957Z,22.00
2023-02-17T12:03:41.068Z,17.57
2023-02-17T12:06:15.702Z,17.97
2023-02-17T12:08:55.257Z,18.47
2023-02-17T12:11:33.486Z,17.70
2023-02-17T12:14:18.210Z,18.80
2023-02-17T12:16:56.838Z,21.07
2023-02-17T12:19:41.345Z,21.43
2023-02-17T12:22:18.650Z,18.50
2023-02-17T12:25:22.358Z,22.43
2023-02-17T12:28:03.759Z,20.70
2023-02-17T12:30:48.865Z,25.90
2023-02-17T12:33:34.457Z,18.77
2023-02-17T12:36:06.456Z,18.80
2023-02-17T12:38:38.276Z,23.47
2023-02-17T12:41:10.982Z,20.27
2023-02-17T12:43:44.585Z,30.20
2023-02-17T12:46:21.012Z,19.43
2023-02-17T12:48:56.355Z,24.90
2023-02-17T12:51:30.299Z,22.83
2023-02-17T12:54:04.777Z,25.43
2023-02-17T12:56:58.438Z,27.63
2023-02-17T12:59:33.909Z,23.50
2023-02-17T13:02:04.869Z,23.60
2023-02-17T13:04:36.537Z,25.60
2023-02-17T13:07:27.632Z,24.40
2023-02-17T13:09:57.874Z,18.97
2023-02-17T13:12:40.664Z,25.27
2023-02-17T13:15:29.118Z,20.80
2023-02-17T13:18:02.285Z,25.07
2023-02-17T13:20:45.897Z,24.47
2023-02-17T13:23:26.952Z,22.23
2023-02-17T13:26:08.498Z,22.33
2023-02-17T13:28:38.885Z,23.83
2023-02-17T13:31:18.941Z,25.83
2023-02-17T13:33:50.834Z,24.70
2023-02-17T13:36:34.774Z,23.57
2023-02-17T13:39:08.424Z,23.53
2023-02-17T13:41:47.525Z,28.17
2023-02-17T13:44:25.612Z,22.47
2023-02-17T13:46:56.186Z,24.30
2023-02-17T13:49:27.787Z,23.13
2023-02-17T13:52:09.429Z,23.90
2023-02-17T13:54:38.135Z,26.20
2023-02-17T13:57:07.801Z,21.33
2023-02-17T13:59:39.016Z,20.93
2023-02-17T14:02:35.207Z,23.53
2023-02-17T14:05:17.406Z,22.40
2023-02-17T14:07:49.104Z,24.40
2023-02-17T14:10:21.043Z,24.00
2023-02-17T14:12:50.162Z,20.30
2023-02-17T14:15:20.099Z,17.90
2023-02-17T14:17:48.996Z,28.00
2023-02-17T14:20:33.244Z,25.83
2023-02-17T14:23:05.770Z,25.50
2023-02-17T14:25:36.704Z,25.03
2023-02-17T14:28:06.123Z,26.47
2023-02-17T14:30:37.730Z,21.23
2023-02-17T14:33:08.304Z,21.93
2023-02-17T14:35:39.528Z,17.80
2023-02-17T14:38:20.106Z,22.60
2023-02-17T14:40:48.997Z,22.47
2023-02-17T14:43:17.830Z,21.97
2023-02-17T14:45:46.611Z,20.50
2023-02-17T14:48:15.613Z,28.20
2023-02-17T14:50:45.010Z,23.73
2023-02-17T14:53:21.456Z,19.50
2023-02-17T14:55:53.936Z,22.33
2023-02-17T14:58:25.443Z,18.63
2023-02-17T15:00:55.333Z,20.77
2023-02-17T15:03:24.265Z,24.53
2023-02-17T15:05:53.233Z,21.23
2023-02-17T15:08:27.616Z,20.30
2023-02-17T15:10:56.781Z,23.53
2023-02-17T15:13:26.906Z,22.27
2023-02-17T15:15:55.856Z,28.10
2023-02-17T15:18:27.897Z,21.17
2023-02-17T15:20:57.854Z,28.27
2023-02-17T15:23:33.056Z,18.40
2023-02-17T15:26:01.751Z,24.53
2023-02-17T15:28:30.662Z,22.37
2023-02-17T15:30:59.440Z,22.17
2023-02-17T15:33:28.575Z,22.83
2023-02-17T15:35:57.441Z,15.60
2023-02-17T15:38:27.436Z,27.17
2023-02-17T15:40:59.121Z,18.40
2023-02-17T15:46:14.813Z,25.07
2023-02-17T15:48:44.955Z,27.90
2023-02-17T15:51:15.498Z,17.13
2023-02-17T15:53:45.463Z,23.67
2023-02-17T15:56:19.107Z,14.13
2023-02-17T15:58:50.010Z,26.77
2023-02-17T16:01:25.347Z,28.33
2023-02-17T16:03:53.991Z,28.23
2023-02-17T16:06:22.839Z,22.27
2023-02-17T16:08:53.029Z,23.83
2023-02-17T16:11:23.888Z,19.40
2023-02-17T16:13:53.192Z,24.53
2023-02-17T16:16:25.099Z,23.07
2023-02-17T16:18:53.988Z,23.80
2023-02-17T16:21:22.927Z,21.10
2023-02-17T16:23:58.914Z,23.30
2023-02-17T16:26:33.598Z,23.57
2023-02-17T16:29:05.058Z,32.83
2023-02-17T16:31:36.049Z,21.97
2023-02-17T16:34:04.903Z,30.03
2023-02-17T16:36:36.686Z,36.63
2023-02-17T16:39:13.866Z,23.63
2023-02-17T16:41:42.963Z,16.83
2023-02-17T16:44:14.212Z,24.73
2023-02-17T16:46:48.719Z,28.10
2023-02-17T16:49:21.936Z,18.93
2023-02-17T16:51:53.035Z,35.67
2023-02-17T16:54:23.081Z,35.70
2023-02-17T16:56:53.273Z,22.43
2023-02-17T16:59:23.660Z,22.60
2023-02-17T17:01:54.285Z,27.97
2023-02-17T17:04:23.287Z,25.23
2023-02-17T17:06:53.259Z,36.03
2023-02-17T17:09:25.452Z,32.73
2023-02-17T17:11:54.175Z,35.43
2023-02-17T17:14:22.807Z,30.50
2023-02-17T17:16:54.659Z,37.43
2023-02-17T17:19:23.441Z,27.97
2023-02-17T17:21:52.230Z,30.87
2023-02-17T17:24:22.833Z,28.90
2023-02-17T17:26:51.731Z,28.63
2023-02-17T17:29:21.008Z,35.00
2023-02-17T17:31:49.889Z,31.43
2023-02-17T17:34:18.918Z,33.00
2023-02-17T17:36:48.893Z,40.43
2023-02-17T17:39:20.249Z,32.37
2023-02-17T17:41:51.219Z,43.47
2023-02-17T17:44:20.672Z,31.57
2023-02-17T17:46:49.917Z,32.97
2023-02-17T17:49:20.891Z,27.83
2023-02-17T17:51:49.556Z,33.23
2023-02-17T17:54:19.083Z,24.50
2023-02-17T17:56:49.091Z,23.90
2023-02-17T17:59:17.734Z,19.43
2023-02-17T18:01:46.461Z,21.93
2023-02-17T18:04:15.370Z,30.00
2023-02-17T18:06:47.598Z,25.13
2023-02-17T18:09:30.625Z,23.90
2023-02-17T18:12:05.456Z,29.43
2023-02-17T18:14:36.241Z,33.13
2023-02-17T18:17:05.320Z,29.10
2023-02-17T18:19:34.387Z,35.83
2023-02-17T18:22:03.045Z,32.07
2023-02-17T18:24:31.700Z,28.83
2023-02-17T18:27:01.703Z,40.23
2023-02-17T18:29:30.350Z,23.17
2023-02-17T18:32:00.063Z,43.83
2023-02-17T18:34:28.808Z,30.23
2023-02-17T18:36:57.464Z,44.40
2023-02-17T18:39:26.275Z,32.03
2023-02-17T18:41:55.306Z,36.00
2023-02-17T18:44:25.355Z,26.90
2023-02-17T18:46:53.907Z,30.23
2023-02-17T18:49:22.590Z,48.77
2023-02-17T18:51:52.446Z,29.93
2023-02-17T18:54:21.183Z,41.40
2023-02-17T18:56:50.093Z,31.63
2023-02-17T18:59:18.820Z,32.17
2023-02-17T19:01:48.895Z,27.83
2023-02-17T19:04:17.596Z,33.87
2023-02-17T19:06:46.219Z,39.53
2023-02-17T19:09:14.921Z,31.73
2023-02-17T19:11:43.603Z,27.70
2023-02-17T19:14:12.503Z,42.13
2023-02-17T19:16:41.151Z,33.10
2023-02-17T19:19:11.172Z,42.97
2023-02-17T19:21:39.814Z,29.87
2023-02-17T19:24:09.561Z,28.40
2023-02-17T19:26:38.214Z,30.73
2023-02-17T19:29:06.969Z,25.93
2023-02-17T19:31:35.674Z,37.83
2023-02-17T19:34:04.416Z,38.20
2023-02-17T19:36:34.472Z,26.17
2023-02-17T19:39:03.145Z,42.20
2023-02-17T19:41:33.452Z,22.37
2023-02-17T19:44:03.658Z,34.50
2023-02-17T19:46:32.297Z,37.23
2023-02-17T19:49:01.129Z,35.27
2023-02-17T19:51:30.256Z,32.10
2023-02-17T19:54:01.312Z,37.30
2023-02-17T19:56:31.852Z,31.13
2023-02-17T19:59:00.613Z,41.77
2023-02-17T20:01:31.373Z,35.30
2023-02-17T20:04:01.645Z,33.00
2023-02-17T20:06:32.846Z,39.37
2023-02-17T20:09:05.085Z,32.37
2023-02-17T20:11:34.082Z,28.23
2023-02-17T20:14:03.400Z,31.67
2023-02-17T20:16:32.510Z,39.80
2023-02-17T20:19:02.577Z,50.03
2023-02-17T20:21:33.267Z,32.80
2023-02-17T20:24:03.654Z,40.20
2023-02-17T20:26:34.936Z,27.57
2023-02-17T20:29:04.538Z,43.83
2023-02-17T20:31:33.230Z,38.00
2023-02-17T20:34:04.145Z,32.50
2023-02-17T20:36:32.918Z,25.73
2023-02-17T20:39:03.082Z,30.10
2023-02-17T20:41:31.867Z,25.90
2023-02-17T20:44:02.916Z,38.97
2023-02-17T20:46:32.976Z,28.20
2023-02-17T20:49:01.582Z,40.90
2023-02-17T20:51:30.329Z,45.33
2023-02-17T20:53:59.164Z,46.43
2023-02-17T20:56:35.334Z,27.73
2023-02-17T20:59:04.418Z,28.80
2023-02-17T21:01:33.396Z,36.53
2023-02-17T21:04:02.462Z,39.10
2023-02-17T21:09:19.937Z,25.13
2023-02-17T21:11:50.313Z,24.43
2023-02-17T21:14:18.960Z,21.03
2023-02-17T21:16:47.650Z,26.60
2023-02-17T21:19:16.371Z,32.57
2023-02-17T21:21:45.454Z,22.63
2023-02-17T21:24:14.286Z,31.03
2023-02-17T21:26:43.094Z,29.50
2023-02-17T21:29:15.120Z,25.00
2023-02-17T21:31:44.033Z,31.50
2023-02-17T21:34:12.924Z,34.27
2023-02-17T21:36:41.671Z,27.43
2023-02-17T21:39:10.365Z,28.80
2023-02-17T21:41:41.966Z,39.13
2023-02-17T21:44:32.429Z,42.70
2023-02-17T21:47:01.141Z,43.00
2023-02-17T21:49:30.135Z,41.67
2023-02-17T21:51:59.563Z,43.20
2023-02-17T21:54:28.597Z,41.83
2023-02-17T21:56:57.754Z,39.80
2023-02-17T21:59:28.833Z,34.23
2023-02-17T22:01:58.558Z,34.20
2023-02-17T22:04:28.213Z,35.07
2023-02-17T22:06:56.982Z,40.37
2023-02-17T22:09:25.778Z,39.33
2023-02-17T22:11:56.040Z,30.67
2023-02-17T22:14:26.605Z,37.53
2023-02-17T22:16:57.540Z,47.70
2023-02-17T22:19:28.801Z,40.53
2023-02-17T22:21:59.134Z,52.77
2023-02-17T22:24:28.082Z,39.17
2023-02-17T22:26:57.305Z,43.37
2023-02-17T22:29:25.915Z,39.07
2023-02-17T22:31:56.298Z,34.40
2023-02-17T22:34:27.597Z,39.97
2023-02-17T22:36:56.282Z,48.00
2023-02-17T22:39:25.341Z,37.83
2023-02-17T22:41:54.158Z,32.57
2023-02-17T22:44:22.920Z,44.17
2023-02-17T22:46:51.545Z,42.80
2023-02-17T22:49:21.585Z,31.67
2023-02-17T22:51:50.526Z,34.13
2023-02-17T22:54:19.228Z,41.17
2023-02-17T22:56:48.051Z,38.27
2023-02-17T22:59:16.680Z,41.03
2023-02-17T23:01:46.287Z,44.53
2023-02-17T23:04:15.724Z,39.03
2023-02-17T23:06:47.571Z,40.80
2023-02-17T23:09:18.130Z,46.80
2023-02-17T23:11:51.060Z,41.17
2023-02-17T23:14:22.802Z,49.30
2023-02-17T23:16:52.481Z,39.57
2023-02-17T23:19:22.694Z,51.57
2023-02-17T23:21:55.991Z,49.40
2023-02-17T23:24:26.154Z,48.07
2023-02-17T23:26:55.253Z,49.37
2023-02-17T23:29:24.528Z,57.60
2023-02-17T23:31:53.289Z,40.17
2023-02-17T23:34:22.361Z,48.77
2023-02-17T23:36:52.433Z,44.53
2023-02-17T23:39:21.144Z,52.27
2023-02-17T23:41:50.168Z,57.67
2023-02-17T23:44:19.748Z,44.03
2023-02-17T23:46:48.591Z,48.50
2023-02-17T23:49:18.652Z,60.07
2023-02-17T23:51:47.942Z,51.33
2023-02-17T23:54:18.416Z,55.03
2023-02-17T23:56:47.057Z,47.87
2023-02-17T23:59:15.689Z,49.33
